createdAt,value
2018-06-17T00:00:48.785Z,43.14
2018-06-17T00:05:41.681Z,42.80
2018-06-17T00:10:34.559Z,43.17
2018-06-17T00:15:27.417Z,43.20
2018-06-17T00:20:20.310Z,42.94
2018-06-17T00:25:13.202Z,43.57
2018-06-17T00:30:06.215Z,43.69
2018-06-17T00:34:59.052Z,43.29
2018-06-17T00:39:51.954Z,42.77
2018-06-17T00:44:46.595Z,43.37
2018-06-17T00:49:39.470Z,42.87
2018-06-17T00:54:32.381Z,43.59
2018-06-17T00:59:25.240Z,42.85
2018-06-17T01:04:18.082Z,43.89
2018-06-17T01:09:10.989Z,44.10
2018-06-17T01:14:03.908Z,43.19
2018-06-17T01:18:56.867Z,43.58
2018-06-17T01:23:49.738Z,44.80
2018-06-17T01:28:42.572Z,44.42
2018-06-17T01:33:35.409Z,44.95
2018-06-17T01:38:28.494Z,45.29
2018-06-17T01:43:21.417Z,44.83
2018-06-17T01:48:14.342Z,44.59
2018-06-17T01:53:07.293Z,45.72
2018-06-17T01:58:00.193Z,45.00
2018-06-17T02:02:53.060Z,45.64
2018-06-17T02:07:52.205Z,45.85
2018-06-17T02:12:45.155Z,45.53
2018-06-17T02:17:38.040Z,46.21
2018-06-17T02:22:30.992Z,46.40
2018-06-17T02:27:23.922Z,46.73
2018-06-17T02:32:16.759Z,46.15
2018-06-17T02:37:09.867Z,46.45
2018-06-17T02:42:02.805Z,46.39
2018-06-17T02:47:01.456Z,46.40
2018-06-17T02:52:00.035Z,47.43
2018-06-17T02:56:52.862Z,46.68
2018-06-17T03:01:45.712Z,47.65
2018-06-17T03:06:38.670Z,46.81
2018-06-17T03:11:31.518Z,47.59
2018-06-17T03:16:24.395Z,47.63
2018-06-17T03:21:17.377Z,47.72
2018-06-17T03:26:15.931Z,48.82
2018-06-17T03:31:14.432Z,48.23
2018-06-17T03:36:08.364Z,49.17
2018-06-17T03:41:01.216Z,49.70
2018-06-17T03:45:54.077Z,49.64
2018-06-17T03:50:47.081Z,49.08
2018-06-17T03:55:40.073Z,49.83
2018-06-17T04:00:32.987Z,49.69
2018-06-17T04:05:28.679Z,49.24
2018-06-17T04:10:21.601Z,49.43
2018-06-17T04:15:14.524Z,49.38
2018-06-17T04:20:07.387Z,49.60
2018-06-17T04:25:00.305Z,49.19
2018-06-17T04:29:53.210Z,49.09
2018-06-17T04:34:46.104Z,49.58
2018-06-17T04:39:38.967Z,49.40
2018-06-17T04:44:32.143Z,48.75
2018-06-17T04:49:25.053Z,49.27
2018-06-17T04:54:17.882Z,48.61
2018-06-17T04:59:10.799Z,49.54
2018-06-17T05:04:03.718Z,49.67
2018-06-17T05:08:56.693Z,49.80
2018-06-17T05:13:49.599Z,49.22
2018-06-17T05:18:42.561Z,49.60
2018-06-17T05:23:35.474Z,49.06
2018-06-17T05:28:28.411Z,49.22
2018-06-17T05:33:21.359Z,49.81
2018-06-17T05:38:14.220Z,48.88
2018-06-17T05:43:07.117Z,48.64
2018-06-17T05:47:59.986Z,49.05
2018-06-17T05:52:52.966Z,49.89
2018-06-17T05:57:45.841Z,49.91
2018-06-17T06:02:38.719Z,50.57
2018-06-17T06:07:31.629Z,50.38
2018-06-17T06:12:24.613Z,50.32
2018-06-17T06:17:17.636Z,51.04
2018-06-17T06:22:10.463Z,50.74
2018-06-17T06:27:03.285Z,50.71
2018-06-17T06:31:56.157Z,50.42
2018-06-17T06:36:49.149Z,51.58
2018-06-17T06:41:41.997Z,51.17
2018-06-17T06:46:34.970Z,50.93
2018-06-17T06:51:27.784Z,51.25
2018-06-17T06:56:20.730Z,51.08
2018-06-17T07:01:24.746Z,51.04
2018-06-17T07:06:35.308Z,51.05
2018-06-17T07:11:28.303Z,50.90
2018-06-17T07:16:32.929Z,50.39
2018-06-17T07:21:25.847Z,50.88
2018-06-17T07:27:36.111Z,50.06
2018-06-17T07:32:29.069Z,48.71
2018-06-17T07:37:22.016Z,45.70
2018-06-17T07:42:14.941Z,43.34
2018-06-17T07:47:07.859Z,41.17
2018-06-17T07:52:18.973Z,40.74
2018-06-17T07:57:13.234Z,38.52
2018-06-17T08:02:06.886Z,39.10
2018-06-17T08:06:59.748Z,37.76
2018-06-17T08:11:52.701Z,38.08
2018-06-17T08:16:45.601Z,39.32
2018-06-17T08:21:38.564Z,38.34
2018-06-17T08:26:31.446Z,38.02
2018-06-17T08:31:24.396Z,38.96
2018-06-17T08:36:17.197Z,38.34
2018-06-17T08:41:10.151Z,39.51
2018-06-17T08:46:03.041Z,40.38
2018-06-17T08:50:55.982Z,38.80
2018-06-17T08:55:48.810Z,40.36
2018-06-17T09:00:41.718Z,39.56
2018-06-17T09:05:34.543Z,40.36
2018-06-17T09:10:27.463Z,39.87
2018-06-17T09:15:20.289Z,40.12
2018-06-17T09:20:13.545Z,40.26
2018-06-17T09:25:06.454Z,41.08
2018-06-17T09:29:59.377Z,40.54
2018-06-17T09:34:52.474Z,40.58
2018-06-17T09:39:45.374Z,40.84
2018-06-17T09:44:38.268Z,40.74
2018-06-17T09:49:31.090Z,40.01
2018-06-17T09:54:23.962Z,41.29
2018-06-17T09:59:16.884Z,39.56
2018-06-17T10:04:09.769Z,39.10
2018-06-17T10:09:03.080Z,39.83
2018-06-17T10:13:56.043Z,40.36
2018-06-17T10:18:48.969Z,39.18
2018-06-17T10:23:41.829Z,39.93
2018-06-17T10:28:35.078Z,39.88
2018-06-17T10:33:27.973Z,38.70
2018-06-17T10:38:20.890Z,40.53
2018-06-17T10:43:14.972Z,40.39
2018-06-17T10:48:08.212Z,41.41
2018-06-17T10:53:01.126Z,40.85
2018-06-17T10:57:54.042Z,41.14
2018-06-17T11:02:46.937Z,40.37
2018-06-17T11:07:39.814Z,40.96
2018-06-17T11:12:33.117Z,41.65
2018-06-17T11:17:26.193Z,40.91
2018-06-17T11:22:19.510Z,40.84
2018-06-17T11:27:12.464Z,40.29
2018-06-17T11:32:05.354Z,40.16
2018-06-17T11:36:58.296Z,40.10
2018-06-17T11:41:51.172Z,39.51
2018-06-17T11:46:44.074Z,39.18
2018-06-17T11:51:36.982Z,40.43
2018-06-17T11:56:29.906Z,39.43
2018-06-17T12:01:22.837Z,38.95
2018-06-17T12:06:15.718Z,39.42
2018-06-17T12:11:08.634Z,38.26
2018-06-17T12:16:01.575Z,36.90
2018-06-17T12:20:54.471Z,37.54
2018-06-17T12:25:47.837Z,37.43
2018-06-17T12:30:40.749Z,36.99
2018-06-17T12:35:33.733Z,36.71
2018-06-17T12:40:26.641Z,36.35
2018-06-17T12:45:19.788Z,36.82
2018-06-17T12:50:12.727Z,37.08
2018-06-17T12:55:05.670Z,36.89
2018-06-17T12:59:58.562Z,37.67
2018-06-17T13:04:51.456Z,37.44
2018-06-17T13:09:44.730Z,37.25
2018-06-17T13:14:37.670Z,35.00
2018-06-17T13:19:30.604Z,35.90
2018-06-17T13:24:23.452Z,34.98
2018-06-17T13:29:16.467Z,34.11
2018-06-17T13:34:09.539Z,35.68
2018-06-17T13:39:03.175Z,36.23
2018-06-17T13:43:56.109Z,34.34
2018-06-17T13:48:49.110Z,33.85
2018-06-17T13:53:42.022Z,32.87
2018-06-17T13:58:35.011Z,34.41
2018-06-17T14:03:27.917Z,33.49
2018-06-17T14:08:20.684Z,34.35
2018-06-17T14:13:13.583Z,32.54
2018-06-17T14:18:06.518Z,32.62
2018-06-17T14:22:59.352Z,31.99
2018-06-17T14:27:52.262Z,30.63
2018-06-17T14:32:45.263Z,31.47
2018-06-17T14:37:38.199Z,31.22
2018-06-17T14:42:37.011Z,31.98
2018-06-17T14:47:35.536Z,31.34
2018-06-17T14:52:36.009Z,31.62
2018-06-17T14:57:28.953Z,31.15
2018-06-17T15:02:21.896Z,31.32
2018-06-17T15:07:14.800Z,30.98
2018-06-17T15:12:07.734Z,31.13
2018-06-17T15:17:00.903Z,31.79
2018-06-17T15:21:53.760Z,32.16
2018-06-17T15:26:46.643Z,31.15
2018-06-17T15:31:45.193Z,29.90
2018-06-17T15:36:43.740Z,30.07
2018-06-17T15:41:36.758Z,30.89
2018-06-17T15:46:29.676Z,31.45
2018-06-17T15:51:22.637Z,31.62
2018-06-17T15:56:15.598Z,31.65
2018-06-17T16:01:09.086Z,31.17
2018-06-17T16:06:02.082Z,29.45
2018-06-17T16:10:55.036Z,31.26
2018-06-17T16:15:53.655Z,30.70
2018-06-17T16:20:52.182Z,31.04
2018-06-17T16:25:45.096Z,31.26
2018-06-17T16:30:38.026Z,30.85
2018-06-17T16:35:30.888Z,30.45
2018-06-17T16:40:23.792Z,30.52
2018-06-17T16:45:16.695Z,30.01
2018-06-17T16:50:09.590Z,30.88
2018-06-17T16:55:07.120Z,30.19
2018-06-17T17:00:04.992Z,29.72
2018-06-17T17:04:58.262Z,29.53
2018-06-17T17:09:51.119Z,29.98
2018-06-17T17:14:44.013Z,30.05
2018-06-17T17:19:37.026Z,30.07
2018-06-17T17:24:29.953Z,30.94
2018-06-17T17:29:22.890Z,30.90
2018-06-17T17:34:21.396Z,31.12
2018-06-17T17:39:20.175Z,31.30
2018-06-17T17:44:14.214Z,31.11
2018-06-17T17:49:07.082Z,31.45
2018-06-17T17:54:00.104Z,34.49
2018-06-17T17:58:53.024Z,33.09
2018-06-17T18:03:45.971Z,33.13
2018-06-17T18:08:38.789Z,31.72
2018-06-17T18:13:31.675Z,31.97
2018-06-17T18:18:24.629Z,30.75
2018-06-17T18:23:17.553Z,30.41
2018-06-17T18:28:16.105Z,31.23
2018-06-17T18:33:14.677Z,30.66
2018-06-17T18:38:07.749Z,30.79
2018-06-17T18:43:00.742Z,31.12
2018-06-17T18:47:53.731Z,31.61
2018-06-17T18:52:46.786Z,30.80
2018-06-17T18:57:39.716Z,32.58
2018-06-17T19:02:32.615Z,32.67
2018-06-17T19:07:25.782Z,31.97
2018-06-17T19:13:26.402Z,32.39
2018-06-17T19:18:19.372Z,32.59
2018-06-17T19:23:12.309Z,33.72
2018-06-17T19:28:05.330Z,33.04
2018-06-17T19:32:58.228Z,33.80
2018-06-17T19:37:51.316Z,34.22
2018-06-17T19:42:44.161Z,34.14
2018-06-17T19:47:37.188Z,33.49
2018-06-17T19:52:35.918Z,34.19
2018-06-17T19:57:34.604Z,33.84
2018-06-17T20:02:27.718Z,33.19
2018-06-17T20:07:20.650Z,34.30
2018-06-17T20:12:13.656Z,33.76
2018-06-17T20:17:06.738Z,33.44
2018-06-17T20:21:59.597Z,34.51
2018-06-17T20:26:52.412Z,35.05
2018-06-17T20:31:50.913Z,34.43
2018-06-17T20:36:49.635Z,34.79
2018-06-17T20:42:50.145Z,35.93
2018-06-17T20:47:43.186Z,35.92
2018-06-17T20:52:36.203Z,36.43
2018-06-17T20:57:29.176Z,36.77
2018-06-17T21:02:22.034Z,36.42
2018-06-17T21:07:15.004Z,37.42
2018-06-17T21:12:07.977Z,36.98
2018-06-17T21:17:00.907Z,38.13
2018-06-17T21:21:59.496Z,37.78
2018-06-17T21:26:58.029Z,38.78
2018-06-17T21:31:50.950Z,38.63
2018-06-17T21:36:43.878Z,38.82
2018-06-17T21:41:37.747Z,38.98
2018-06-17T21:46:30.605Z,40.38
2018-06-17T21:51:23.513Z,40.27
2018-06-17T21:56:16.444Z,40.03
2018-06-17T22:01:10.140Z,39.84
2018-06-17T22:06:03.043Z,40.07
2018-06-17T22:11:01.673Z,40.21
2018-06-17T22:16:00.376Z,40.21
2018-06-17T22:20:53.265Z,40.20
2018-06-17T22:25:46.181Z,41.40
2018-06-17T22:30:39.100Z,41.31
2018-06-17T22:35:31.947Z,40.84
2018-06-17T22:40:24.912Z,41.65
2018-06-17T22:45:17.851Z,40.81
2018-06-17T22:50:10.751Z,41.16
2018-06-17T22:55:04.394Z,41.30
2018-06-17T23:00:03.124Z,40.82
2018-06-17T23:05:01.817Z,41.27
2018-06-17T23:09:55.069Z,41.00
2018-06-17T23:14:47.980Z,41.76
2018-06-17T23:19:40.917Z,41.95
2018-06-17T23:24:33.866Z,42.82
2018-06-17T23:29:26.742Z,43.29
2018-06-17T23:34:19.730Z,42.61
2018-06-17T23:39:12.589Z,43.23
2018-06-17T23:44:05.506Z,42.82
2018-06-17T23:49:04.238Z,42.58
2018-06-17T23:54:03.029Z,42.66
2018-06-17T23:58:55.920Z,43.43
